sensor_id;sensor_type;location;lat;lon;timestamp;temperature;humidity
54700;DHT22;40599;53.132;6.090;2022-10-16T00:01:41;12.50;99.90
54700;DHT22;40599;53.132;6.090;2022-10-16T00:04:06;12.50;99.90
54700;DHT22;40599;53.132;6.090;2022-10-16T00:06:32;12.50;99.90
54700;DHT22;40599;53.132;6.090;2022-10-16T00:08:58;12.50;99.90
54700;DHT22;40599;53.132;6.090;2022-10-16T00:11:25;12.40;99.90
54700;DHT22;40599;53.132;6.090;2022-10-16T00:13:51;12.40;99.90
54700;DHT22;40599;53.132;6.090;2022-10-16T00:16:17;12.40;99.90
54700;DHT22;40599;53.132;6.090;2022-10-16T00:18:43;12.40;99.90
54700;DHT22;40599;53.132;6.090;2022-10-16T00:21:13;12.40;99.90
54700;DHT22;40599;53.132;6.090;2022-10-16T00:23:39;12.50;99.90
54700;DHT22;40599;53.132;6.090;2022-10-16T00:26:06;12.40;99.90
54700;DHT22;40599;53.132;6.090;2022-10-16T00:28:33;12.40;99.90
54700;DHT22;40599;53.132;6.090;2022-10-16T00:31:02;12.40;99.90
54700;DHT22;40599;53.132;6.090;2022-10-16T00:33:28;12.40;99.90
54700;DHT22;40599;53.132;6.090;2022-10-16T00:35:53;12.40;99.90
54700;DHT22;40599;53.132;6.090;2022-10-16T00:38:19;12.40;99.90
54700;DHT22;40599;53.132;6.090;2022-10-16T00:40:44;12.40;99.90
54700;DHT22;40599;53.132;6.090;2022-10-16T00:43:31;12.40;99.90
54700;DHT22;40599;53.132;6.090;2022-10-16T00:45:57;12.40;99.90
54700;DHT22;40599;53.132;6.090;2022-10-16T00:48:23;12.40;99.90
54700;DHT22;40599;53.132;6.090;2022-10-16T00:50:49;12.50;99.90
54700;DHT22;40599;53.132;6.090;2022-10-16T00:53:14;12.50;99.90
54700;DHT22;40599;53.132;6.090;2022-10-16T00:55:41;12.50;99.90
54700;DHT22;40599;53.132;6.090;2022-10-16T00:58:06;12.50;99.90
54700;DHT22;40599;53.132;6.090;2022-10-16T01:00:32;12.50;99.90
54700;DHT22;40599;53.132;6.090;2022-10-16T01:02:59;12.50;99.90
54700;DHT22;40599;53.132;6.090;2022-10-16T01:05:27;12.50;99.90
54700;DHT22;40599;53.132;6.090;2022-10-16T01:12:51;12.50;99.90
54700;DHT22;40599;53.132;6.090;2022-10-16T01:17:49;12.60;99.90
54700;DHT22;40599;53.132;6.090;2022-10-16T01:20:22;12.50;99.90
54700;DHT22;40599;53.132;6.090;2022-10-16T01:22:56;12.50;99.90
54700;DHT22;40599;53.132;6.090;2022-10-16T01:28:09;12.50;99.90
54700;DHT22;40599;53.132;6.090;2022-10-16T01:30:37;12.50;99.90
54700;DHT22;40599;53.132;6.090;2022-10-16T01:33:07;12.60;99.90
54700;DHT22;40599;53.132;6.090;2022-10-16T01:35:52;12.60;99.90
54700;DHT22;40599;53.132;6.090;2022-10-16T01:38:29;12.70;99.90
54700;DHT22;40599;53.132;6.090;2022-10-16T01:41:00;12.70;99.90
54700;DHT22;40599;53.132;6.090;2022-10-16T01:43:28;12.70;99.90
54700;DHT22;40599;53.132;6.090;2022-10-16T01:45:54;12.60;99.90
54700;DHT22;40599;53.132;6.090;2022-10-16T01:48:20;12.60;99.90
54700;DHT22;40599;53.132;6.090;2022-10-16T01:50:52;13.30;99.90
54700;DHT22;40599;53.132;6.090;2022-10-16T01:53:19;12.70;99.90
54700;DHT22;40599;53.132;6.090;2022-10-16T01:55:45;12.70;99.90
54700;DHT22;40599;53.132;6.090;2022-10-16T01:58:13;12.70;99.90
54700;DHT22;40599;53.132;6.090;2022-10-16T02:00:39;12.70;99.90
54700;DHT22;40599;53.132;6.090;2022-10-16T02:03:06;12.70;99.90
54700;DHT22;40599;53.132;6.090;2022-10-16T02:05:42;12.70;99.90
54700;DHT22;40599;53.132;6.090;2022-10-16T02:08:10;12.70;99.90
54700;DHT22;40599;53.132;6.090;2022-10-16T02:10:36;12.70;99.90
54700;DHT22;40599;53.132;6.090;2022-10-16T02:13:04;12.70;99.90
54700;DHT22;40599;53.132;6.090;2022-10-16T02:15:31;12.70;99.90
54700;DHT22;40599;53.132;6.090;2022-10-16T02:17:56;12.70;99.90
54700;DHT22;40599;53.132;6.090;2022-10-16T02:20:25;12.70;99.90
54700;DHT22;40599;53.132;6.090;2022-10-16T02:22:51;12.70;99.90
54700;DHT22;40599;53.132;6.090;2022-10-16T02:25:19;12.70;99.90
54700;DHT22;40599;53.132;6.090;2022-10-16T02:27:50;12.70;99.90
54700;DHT22;40599;53.132;6.090;2022-10-16T02:30:20;12.70;99.90
54700;DHT22;40599;53.132;6.090;2022-10-16T02:32:47;12.70;99.90
54700;DHT22;40599;53.132;6.090;2022-10-16T02:35:15;12.60;99.90
54700;DHT22;40599;53.132;6.090;2022-10-16T02:37:41;12.70;99.90
54700;DHT22;40599;53.132;6.090;2022-10-16T02:40:07;12.60;99.90
54700;DHT22;40599;53.132;6.090;2022-10-16T02:42:34;12.60;99.90
54700;DHT22;40599;53.132;6.090;2022-10-16T02:45:00;12.60;99.90
54700;DHT22;40599;53.132;6.090;2022-10-16T02:47:25;12.60;99.90
54700;DHT22;40599;53.132;6.090;2022-10-16T02:49:51;12.60;99.90
54700;DHT22;40599;53.132;6.090;2022-10-16T02:52:17;12.50;99.90
54700;DHT22;40599;53.132;6.090;2022-10-16T02:54:42;12.50;99.90
54700;DHT22;40599;53.132;6.090;2022-10-16T02:57:08;12.50;99.90
54700;DHT22;40599;53.132;6.090;2022-10-16T02:59:33;12.50;99.90
54700;DHT22;40599;53.132;6.090;2022-10-16T03:01:59;12.40;99.90
54700;DHT22;40599;53.132;6.090;2022-10-16T03:04:25;12.40;99.90
54700;DHT22;40599;53.132;6.090;2022-10-16T03:06:50;12.40;99.90
54700;DHT22;40599;53.132;6.090;2022-10-16T03:09:16;12.40;99.90
54700;DHT22;40599;53.132;6.090;2022-10-16T03:11:41;12.40;99.90
54700;DHT22;40599;53.132;6.090;2022-10-16T03:14:07;12.40;99.90
54700;DHT22;40599;53.132;6.090;2022-10-16T03:16:32;12.40;99.90
54700;DHT22;40599;53.132;6.090;2022-10-16T03:18:58;12.40;99.90
54700;DHT22;40599;53.132;6.090;2022-10-16T03:21:24;12.30;99.90
54700;DHT22;40599;53.132;6.090;2022-10-16T03:23:50;12.40;99.90
54700;DHT22;40599;53.132;6.090;2022-10-16T03:26:15;12.40;99.90
54700;DHT22;40599;53.132;6.090;2022-10-16T03:28:41;12.30;99.90
54700;DHT22;40599;53.132;6.090;2022-10-16T03:31:07;12.40;99.90
54700;DHT22;40599;53.132;6.090;2022-10-16T03:33:33;12.30;99.90
54700;DHT22;40599;53.132;6.090;2022-10-16T03:35:59;12.40;99.90
54700;DHT22;40599;53.132;6.090;2022-10-16T03:38:25;12.30;99.90
54700;DHT22;40599;53.132;6.090;2022-10-16T03:40:51;12.30;99.90
54700;DHT22;40599;53.132;6.090;2022-10-16T03:43:16;12.30;99.90
54700;DHT22;40599;53.132;6.090;2022-10-16T03:45:42;12.30;99.90
54700;DHT22;40599;53.132;6.090;2022-10-16T03:48:08;12.50;99.90
54700;DHT22;40599;53.132;6.090;2022-10-16T03:50:33;12.30;99.90
54700;DHT22;40599;53.132;6.090;2022-10-16T03:52:59;12.20;99.90
54700;DHT22;40599;53.132;6.090;2022-10-16T03:55:24;12.20;99.90
54700;DHT22;40599;53.132;6.090;2022-10-16T03:57:50;12.20;99.90
54700;DHT22;40599;53.132;6.090;2022-10-16T04:00:15;12.20;99.90
54700;DHT22;40599;53.132;6.090;2022-10-16T04:02:41;12.20;99.90
54700;DHT22;40599;53.132;6.090;2022-10-16T04:05:07;12.20;99.90
54700;DHT22;40599;53.132;6.090;2022-10-16T04:07:32;12.20;99.90
54700;DHT22;40599;53.132;6.090;2022-10-16T04:09:58;12.20;99.90
54700;DHT22;40599;53.132;6.090;2022-10-16T04:12:24;12.20;99.90
54700;DHT22;40599;53.132;6.090;2022-10-16T04:14:50;12.20;99.90
54700;DHT22;40599;53.132;6.090;2022-10-16T04:17:16;12.20;99.90
54700;DHT22;40599;53.132;6.090;2022-10-16T04:19:41;12.20;99.90
54700;DHT22;40599;53.132;6.090;2022-10-16T04:22:07;12.20;99.90
54700;DHT22;40599;53.132;6.090;2022-10-16T04:24:33;12.30;99.90
54700;DHT22;40599;53.132;6.090;2022-10-16T04:26:58;12.30;99.90
54700;DHT22;40599;53.132;6.090;2022-10-16T04:29:24;12.30;99.90
54700;DHT22;40599;53.132;6.090;2022-10-16T04:31:49;12.30;99.90
54700;DHT22;40599;53.132;6.090;2022-10-16T04:34:15;12.30;99.90
54700;DHT22;40599;53.132;6.090;2022-10-16T04:36:40;12.40;99.90
54700;DHT22;40599;53.132;6.090;2022-10-16T04:39:06;12.30;99.90
54700;DHT22;40599;53.132;6.090;2022-10-16T04:41:32;12.30;99.90
54700;DHT22;40599;53.132;6.090;2022-10-16T04:43:57;12.40;99.90
54700;DHT22;40599;53.132;6.090;2022-10-16T04:46:23;12.40;99.90
54700;DHT22;40599;53.132;6.090;2022-10-16T04:48:48;12.40;99.90
54700;DHT22;40599;53.132;6.090;2022-10-16T04:51:14;12.40;99.90
54700;DHT22;40599;53.132;6.090;2022-10-16T04:53:40;12.50;99.90
54700;DHT22;40599;53.132;6.090;2022-10-16T04:56:05;12.50;99.90
54700;DHT22;40599;53.132;6.090;2022-10-16T04:58:31;12.50;99.90
54700;DHT22;40599;53.132;6.090;2022-10-16T05:00:56;12.50;99.90
54700;DHT22;40599;53.132;6.090;2022-10-16T05:03:22;12.50;99.90
54700;DHT22;40599;53.132;6.090;2022-10-16T05:05:47;12.60;99.90
54700;DHT22;40599;53.132;6.090;2022-10-16T05:08:13;12.60;99.90
54700;DHT22;40599;53.132;6.090;2022-10-16T05:10:42;12.50;99.90
54700;DHT22;40599;53.132;6.090;2022-10-16T05:13:08;12.60;99.90
54700;DHT22;40599;53.132;6.090;2022-10-16T05:15:34;12.60;99.90
54700;DHT22;40599;53.132;6.090;2022-10-16T05:18:00;12.50;99.90
54700;DHT22;40599;53.132;6.090;2022-10-16T05:20:25;12.50;99.90
54700;DHT22;40599;53.132;6.090;2022-10-16T05:22:51;12.50;99.90
54700;DHT22;40599;53.132;6.090;2022-10-16T05:25:17;12.60;99.90
54700;DHT22;40599;53.132;6.090;2022-10-16T05:27:42;12.60;99.90
54700;DHT22;40599;53.132;6.090;2022-10-16T05:30:08;12.60;99.90
54700;DHT22;40599;53.132;6.090;2022-10-16T05:32:34;12.60;99.90
54700;DHT22;40599;53.132;6.090;2022-10-16T05:34:59;12.60;99.90
54700;DHT22;40599;53.132;6.090;2022-10-16T05:37:29;12.60;99.90
54700;DHT22;40599;53.132;6.090;2022-10-16T05:39:54;12.50;99.90
54700;DHT22;40599;53.132;6.090;2022-10-16T05:42:20;12.50;99.90
54700;DHT22;40599;53.132;6.090;2022-10-16T05:44:46;12.50;99.90
54700;DHT22;40599;53.132;6.090;2022-10-16T05:47:12;12.50;99.90
54700;DHT22;40599;53.132;6.090;2022-10-16T05:49:38;12.50;99.90
54700;DHT22;40599;53.132;6.090;2022-10-16T05:52:03;12.50;99.90
54700;DHT22;40599;53.132;6.090;2022-10-16T05:54:29;12.50;99.90
54700;DHT22;40599;53.132;6.090;2022-10-16T05:56:54;12.50;99.90
54700;DHT22;40599;53.132;6.090;2022-10-16T05:59:20;12.50;99.90
54700;DHT22;40599;53.132;6.090;2022-10-16T06:01:46;12.50;99.90
54700;DHT22;40599;53.132;6.090;2022-10-16T06:04:11;12.50;99.90
54700;DHT22;40599;53.132;6.090;2022-10-16T06:06:37;12.50;99.90
54700;DHT22;40599;53.132;6.090;2022-10-16T06:09:03;12.50;99.90
54700;DHT22;40599;53.132;6.090;2022-10-16T06:11:29;12.50;99.90
54700;DHT22;40599;53.132;6.090;2022-10-16T06:13:56;12.50;99.90
54700;DHT22;40599;53.132;6.090;2022-10-16T06:16:22;12.50;99.90
54700;DHT22;40599;53.132;6.090;2022-10-16T06:18:50;12.50;99.90
54700;DHT22;40599;53.132;6.090;2022-10-16T06:21:16;12.50;99.90
54700;DHT22;40599;53.132;6.090;2022-10-16T06:23:42;12.60;99.90
54700;DHT22;40599;53.132;6.090;2022-10-16T06:26:09;12.50;99.90
54700;DHT22;40599;53.132;6.090;2022-10-16T06:28:34;12.60;99.90
54700;DHT22;40599;53.132;6.090;2022-10-16T06:31:01;12.60;99.90
54700;DHT22;40599;53.132;6.090;2022-10-16T06:33:26;12.60;99.90
54700;DHT22;40599;53.132;6.090;2022-10-16T06:35:52;12.60;99.90
54700;DHT22;40599;53.132;6.090;2022-10-16T06:38:18;12.60;99.90
54700;DHT22;40599;53.132;6.090;2022-10-16T06:40:43;12.60;99.90
54700;DHT22;40599;53.132;6.090;2022-10-16T06:43:09;12.60;99.90
54700;DHT22;40599;53.132;6.090;2022-10-16T06:45:34;12.60;99.90
54700;DHT22;40599;53.132;6.090;2022-10-16T06:48:00;12.60;99.90
54700;DHT22;40599;53.132;6.090;2022-10-16T06:50:26;12.60;99.90
54700;DHT22;40599;53.132;6.090;2022-10-16T06:52:51;12.70;99.90
54700;DHT22;40599;53.132;6.090;2022-10-16T06:55:17;12.70;99.90
54700;DHT22;40599;53.132;6.090;2022-10-16T06:57:43;12.70;99.90
54700;DHT22;40599;53.132;6.090;2022-10-16T07:00:09;12.80;99.90
54700;DHT22;40599;53.132;6.090;2022-10-16T07:02:34;12.80;99.90
54700;DHT22;40599;53.132;6.090;2022-10-16T07:05:00;12.80;99.90
54700;DHT22;40599;53.132;6.090;2022-10-16T07:07:26;12.80;99.90
54700;DHT22;40599;53.132;6.090;2022-10-16T07:09:52;12.80;99.90
54700;DHT22;40599;53.132;6.090;2022-10-16T07:12:17;12.80;99.90
54700;DHT22;40599;53.132;6.090;2022-10-16T07:14:43;12.80;99.90
54700;DHT22;40599;53.132;6.090;2022-10-16T07:17:08;12.80;99.90
54700;DHT22;40599;53.132;6.090;2022-10-16T07:19:34;12.80;99.90
54700;DHT22;40599;53.132;6.090;2022-10-16T07:22:00;12.80;99.90
54700;DHT22;40599;53.132;6.090;2022-10-16T07:24:26;12.80;99.90
54700;DHT22;40599;53.132;6.090;2022-10-16T07:26:51;12.80;99.90
54700;DHT22;40599;53.132;6.090;2022-10-16T07:29:18;12.70;99.90
54700;DHT22;40599;53.132;6.090;2022-10-16T07:31:45;12.80;99.90
54700;DHT22;40599;53.132;6.090;2022-10-16T07:34:11;12.80;99.90
54700;DHT22;40599;53.132;6.090;2022-10-16T07:36:37;12.70;99.90
54700;DHT22;40599;53.132;6.090;2022-10-16T07:39:03;12.70;99.90
54700;DHT22;40599;53.132;6.090;2022-10-16T07:41:29;12.70;99.90
54700;DHT22;40599;53.132;6.090;2022-10-16T07:43:55;12.70;99.90
54700;DHT22;40599;53.132;6.090;2022-10-16T07:46:25;12.70;99.90
54700;DHT22;40599;53.132;6.090;2022-10-16T07:48:51;12.80;99.90
54700;DHT22;40599;53.132;6.090;2022-10-16T07:51:18;12.80;99.90
54700;DHT22;40599;53.132;6.090;2022-10-16T07:53:44;12.80;99.90
54700;DHT22;40599;53.132;6.090;2022-10-16T07:56:09;12.90;99.90
54700;DHT22;40599;53.132;6.090;2022-10-16T07:58:35;12.90;99.90
54700;DHT22;40599;53.132;6.090;2022-10-16T08:01:06;13.00;99.90
54700;DHT22;40599;53.132;6.090;2022-10-16T08:03:32;13.00;99.90
54700;DHT22;40599;53.132;6.090;2022-10-16T08:05:58;13.00;99.90
54700;DHT22;40599;53.132;6.090;2022-10-16T08:08:24;13.10;99.90
54700;DHT22;40599;53.132;6.090;2022-10-16T08:10:50;13.10;99.90
54700;DHT22;40599;53.132;6.090;2022-10-16T08:13:15;13.10;99.90
54700;DHT22;40599;53.132;6.090;2022-10-16T08:15:41;13.10;99.90
54700;DHT22;40599;53.132;6.090;2022-10-16T08:18:07;13.10;99.90
54700;DHT22;40599;53.132;6.090;2022-10-16T08:20:33;13.10;99.90
54700;DHT22;40599;53.132;6.090;2022-10-16T08:23:01;13.20;99.90
54700;DHT22;40599;53.132;6.090;2022-10-16T08:25:27;13.20;99.90
54700;DHT22;40599;53.132;6.090;2022-10-16T08:27:53;13.20;99.90
54700;DHT22;40599;53.132;6.090;2022-10-16T08:30:19;13.20;99.90
54700;DHT22;40599;53.132;6.090;2022-10-16T08:32:45;13.30;99.90
54700;DHT22;40599;53.132;6.090;2022-10-16T08:35:11;13.30;99.90
54700;DHT22;40599;53.132;6.090;2022-10-16T08:37:37;13.40;99.90
54700;DHT22;40599;53.132;6.090;2022-10-16T08:40:04;13.50;99.90
54700;DHT22;40599;53.132;6.090;2022-10-16T08:42:34;13.70;99.90
54700;DHT22;40599;53.132;6.090;2022-10-16T08:45:05;13.80;99.90
54700;DHT22;40599;53.132;6.090;2022-10-16T08:47:39;13.90;99.90
54700;DHT22;40599;53.132;6.090;2022-10-16T08:50:09;14.10;99.90
54700;DHT22;40599;53.132;6.090;2022-10-16T08:52:35;14.20;99.90
54700;DHT22;40599;53.132;6.090;2022-10-16T08:55:04;14.50;99.90
54700;DHT22;40599;53.132;6.090;2022-10-16T08:57:30;14.60;99.90
54700;DHT22;40599;53.132;6.090;2022-10-16T09:00:00;14.70;99.90
54700;DHT22;40599;53.132;6.090;2022-10-16T09:12:20;14.80;99.90
54700;DHT22;40599;53.132;6.090;2022-10-16T09:17:28;14.70;99.90
54700;DHT22;40599;53.132;6.090;2022-10-16T09:20:00;14.70;99.90
54700;DHT22;40599;53.132;6.090;2022-10-16T09:22:28;14.70;99.90
54700;DHT22;40599;53.132;6.090;2022-10-16T09:24:59;14.80;99.90
54700;DHT22;40599;53.132;6.090;2022-10-16T09:27:26;14.90;99.90
54700;DHT22;40599;53.132;6.090;2022-10-16T09:29:52;15.00;99.90
54700;DHT22;40599;53.132;6.090;2022-10-16T09:32:18;15.10;99.90
54700;DHT22;40599;53.132;6.090;2022-10-16T09:34:48;15.20;99.90
54700;DHT22;40599;53.132;6.090;2022-10-16T09:37:17;15.30;99.90
54700;DHT22;40599;53.132;6.090;2022-10-16T09:42:18;15.40;99.90
54700;DHT22;40599;53.132;6.090;2022-10-16T09:44:49;15.40;99.90
54700;DHT22;40599;53.132;6.090;2022-10-16T09:47:16;15.50;99.90
54700;DHT22;40599;53.132;6.090;2022-10-16T09:49:50;15.50;99.90
54700;DHT22;40599;53.132;6.090;2022-10-16T09:52:16;15.60;99.90
54700;DHT22;40599;53.132;6.090;2022-10-16T09:54:51;15.60;99.90
54700;DHT22;40599;53.132;6.090;2022-10-16T09:57:16;15.70;99.90
54700;DHT22;40599;53.132;6.090;2022-10-16T09:59:49;15.80;99.90
54700;DHT22;40599;53.132;6.090;2022-10-16T10:02:16;15.90;99.90
54700;DHT22;40599;53.132;6.090;2022-10-16T10:04:44;15.90;99.90
54700;DHT22;40599;53.132;6.090;2022-10-16T10:07:18;15.90;99.90
54700;DHT22;40599;53.132;6.090;2022-10-16T10:09:45;16.00;99.90
54700;DHT22;40599;53.132;6.090;2022-10-16T10:12:25;16.10;99.90
54700;DHT22;40599;53.132;6.090;2022-10-16T10:14:51;16.20;99.90
54700;DHT22;40599;53.132;6.090;2022-10-16T10:17:18;16.20;99.90
54700;DHT22;40599;53.132;6.090;2022-10-16T10:20:01;16.20;99.90
54700;DHT22;40599;53.132;6.090;2022-10-16T10:22:43;16.20;99.90
54700;DHT22;40599;53.132;6.090;2022-10-16T10:30:08;16.20;99.90
54700;DHT22;40599;53.132;6.090;2022-10-16T10:32:39;16.20;99.90
54700;DHT22;40599;53.132;6.090;2022-10-16T10:52:58;16.40;99.90
54700;DHT22;40599;53.132;6.090;2022-10-16T11:02:49;16.60;99.90
54700;DHT22;40599;53.132;6.090;2022-10-16T11:08:00;16.60;99.90
54700;DHT22;40599;53.132;6.090;2022-10-16T11:10:28;16.60;99.90
54700;DHT22;40599;53.132;6.090;2022-10-16T11:13:02;16.50;99.90
54700;DHT22;40599;53.132;6.090;2022-10-16T11:15:34;16.50;99.90
54700;DHT22;40599;53.132;6.090;2022-10-16T11:20:34;16.20;99.90
54700;DHT22;40599;53.132;6.090;2022-10-16T11:23:16;16.10;99.90
54700;DHT22;40599;53.132;6.090;2022-10-16T11:25:43;15.90;99.90
54700;DHT22;40599;53.132;6.090;2022-10-16T11:30:39;15.60;99.90
54700;DHT22;40599;53.132;6.090;2022-10-16T11:40:54;15.60;99.90
54700;DHT22;40599;53.132;6.090;2022-10-16T11:43:28;15.70;99.90
54700;DHT22;40599;53.132;6.090;2022-10-16T11:45:58;15.80;99.90
54700;DHT22;40599;53.132;6.090;2022-10-16T11:48:30;15.90;99.90
54700;DHT22;40599;53.132;6.090;2022-10-16T11:51:33;16.10;99.90
54700;DHT22;40599;53.132;6.090;2022-10-16T11:56:18;16.30;99.90
54700;DHT22;40599;53.132;6.090;2022-10-16T11:58:59;16.40;99.90
54700;DHT22;40599;53.132;6.090;2022-10-16T12:01:41;16.50;99.90
54700;DHT22;40599;53.132;6.090;2022-10-16T12:06:51;16.60;99.90
54700;DHT22;40599;53.132;6.090;2022-10-16T12:11:44;16.70;99.90
54700;DHT22;40599;53.132;6.090;2022-10-16T12:16:37;16.80;99.90
54700;DHT22;40599;53.132;6.090;2022-10-16T12:19:09;16.70;99.90
54700;DHT22;40599;53.132;6.090;2022-10-16T12:21:36;16.60;99.90
54700;DHT22;40599;53.132;6.090;2022-10-16T12:24:02;16.50;99.90
54700;DHT22;40599;53.132;6.090;2022-10-16T12:26:30;16.40;99.90
54700;DHT22;40599;53.132;6.090;2022-10-16T12:29:12;16.30;99.90
54700;DHT22;40599;53.132;6.090;2022-10-16T12:31:42;16.20;99.90
54700;DHT22;40599;53.132;6.090;2022-10-16T12:36:53;16.10;99.90
54700;DHT22;40599;53.132;6.090;2022-10-16T12:39:23;16.00;99.90
54700;DHT22;40599;53.132;6.090;2022-10-16T12:42:00;16.10;99.90
54700;DHT22;40599;53.132;6.090;2022-10-16T12:44:26;16.10;99.90
54700;DHT22;40599;53.132;6.090;2022-10-16T12:46:56;16.00;99.90
54700;DHT22;40599;53.132;6.090;2022-10-16T12:49:34;16.10;99.90
54700;DHT22;40599;53.132;6.090;2022-10-16T12:52:00;16.10;99.90
54700;DHT22;40599;53.132;6.090;2022-10-16T12:54:37;16.10;99.90
54700;DHT22;40599;53.132;6.090;2022-10-16T12:57:17;16.10;99.90
54700;DHT22;40599;53.132;6.090;2022-10-16T13:08:13;16.10;99.90
54700;DHT22;40599;53.132;6.090;2022-10-16T13:10:48;16.00;99.90
54700;DHT22;40599;53.132;6.090;2022-10-16T13:23:30;16.30;99.90
54700;DHT22;40599;53.132;6.090;2022-10-16T13:26:33;16.40;99.90
54700;DHT22;40599;53.132;6.090;2022-10-16T13:28:50;16.40;99.90
54700;DHT22;40599;53.132;6.090;2022-10-16T13:31:20;16.40;99.90
54700;DHT22;40599;53.132;6.090;2022-10-16T13:33:55;16.40;99.90
54700;DHT22;40599;53.132;6.090;2022-10-16T13:36:25;16.40;99.90
54700;DHT22;40599;53.132;6.090;2022-10-16T13:41:26;16.50;99.90
54700;DHT22;40599;53.132;6.090;2022-10-16T13:43:52;16.50;99.90
54700;DHT22;40599;53.132;6.090;2022-10-16T13:46:20;16.50;99.90
54700;DHT22;40599;53.132;6.090;2022-10-16T13:51:24;16.70;99.90
54700;DHT22;40599;53.132;6.090;2022-10-16T13:53:50;16.80;99.90
54700;DHT22;40599;53.132;6.090;2022-10-16T13:56:16;16.90;99.90
54700;DHT22;40599;53.132;6.090;2022-10-16T13:58:42;17.10;99.90
54700;DHT22;40599;53.132;6.090;2022-10-16T14:01:16;17.10;99.90
54700;DHT22;40599;53.132;6.090;2022-10-16T14:03:42;17.10;99.90
54700;DHT22;40599;53.132;6.090;2022-10-16T14:06:11;17.10;99.90
54700;DHT22;40599;53.132;6.090;2022-10-16T14:08:41;17.20;99.90
54700;DHT22;40599;53.132;6.090;2022-10-16T14:11:07;17.20;99.90
54700;DHT22;40599;53.132;6.090;2022-10-16T14:13:43;17.20;99.90
54700;DHT22;40599;53.132;6.090;2022-10-16T14:16:10;17.30;99.90
54700;DHT22;40599;53.132;6.090;2022-10-16T14:18:37;17.30;99.90
54700;DHT22;40599;53.132;6.090;2022-10-16T14:21:04;17.30;99.90
54700;DHT22;40599;53.132;6.090;2022-10-16T14:23:37;17.20;99.90
54700;DHT22;40599;53.132;6.090;2022-10-16T14:26:45;17.10;99.90
54700;DHT22;40599;53.132;6.090;2022-10-16T14:29:03;17.00;99.90
54700;DHT22;40599;53.132;6.090;2022-10-16T14:31:33;17.00;99.90
54700;DHT22;40599;53.132;6.090;2022-10-16T14:33:59;17.00;99.90
54700;DHT22;40599;53.132;6.090;2022-10-16T14:36:25;16.90;99.90
54700;DHT22;40599;53.132;6.090;2022-10-16T14:39:02;16.90;99.90
54700;DHT22;40599;53.132;6.090;2022-10-16T14:41:29;16.80;99.90
54700;DHT22;40599;53.132;6.090;2022-10-16T14:43:57;16.70;99.90
54700;DHT22;40599;53.132;6.090;2022-10-16T14:46:28;16.70;99.90
54700;DHT22;40599;53.132;6.090;2022-10-16T14:48:59;16.60;99.90
54700;DHT22;40599;53.132;6.090;2022-10-16T14:51:26;16.60;99.90
54700;DHT22;40599;53.132;6.090;2022-10-16T14:53:51;16.50;99.90
54700;DHT22;40599;53.132;6.090;2022-10-16T14:56:18;16.50;99.90
54700;DHT22;40599;53.132;6.090;2022-10-16T14:58:44;16.40;99.90
54700;DHT22;40599;53.132;6.090;2022-10-16T15:01:10;16.30;99.90
54700;DHT22;40599;53.132;6.090;2022-10-16T15:03:37;16.30;99.90
54700;DHT22;40599;53.132;6.090;2022-10-16T15:06:03;16.20;99.90
54700;DHT22;40599;53.132;6.090;2022-10-16T15:08:28;16.30;99.90
54700;DHT22;40599;53.132;6.090;2022-10-16T15:10:54;16.10;99.90
54700;DHT22;40599;53.132;6.090;2022-10-16T15:13:20;16.20;99.90
54700;DHT22;40599;53.132;6.090;2022-10-16T15:15:46;16.10;99.90
54700;DHT22;40599;53.132;6.090;2022-10-16T15:18:12;16.10;99.90
54700;DHT22;40599;53.132;6.090;2022-10-16T15:20:40;16.10;99.90
54700;DHT22;40599;53.132;6.090;2022-10-16T15:23:14;16.10;99.90
54700;DHT22;40599;53.132;6.090;2022-10-16T15:25:53;16.00;99.90
54700;DHT22;40599;53.132;6.090;2022-10-16T15:28:19;16.00;99.90
54700;DHT22;40599;53.132;6.090;2022-10-16T15:30:45;15.90;99.90
54700;DHT22;40599;53.132;6.090;2022-10-16T15:33:19;15.90;99.90
54700;DHT22;40599;53.132;6.090;2022-10-16T15:35:49;15.80;99.90
54700;DHT22;40599;53.132;6.090;2022-10-16T15:38:15;15.70;99.90
54700;DHT22;40599;53.132;6.090;2022-10-16T15:40:40;15.70;99.90
54700;DHT22;40599;53.132;6.090;2022-10-16T15:43:06;15.70;99.90
54700;DHT22;40599;53.132;6.090;2022-10-16T15:45:32;15.60;99.90
54700;DHT22;40599;53.132;6.090;2022-10-16T15:47:58;15.60;99.90
54700;DHT22;40599;53.132;6.090;2022-10-16T15:50:23;15.50;99.90
54700;DHT22;40599;53.132;6.090;2022-10-16T15:52:49;15.40;99.90
54700;DHT22;40599;53.132;6.090;2022-10-16T15:55:15;15.40;99.90
54700;DHT22;40599;53.132;6.090;2022-10-16T15:57:41;15.30;99.90
54700;DHT22;40599;53.132;6.090;2022-10-16T16:00:09;15.30;99.90
54700;DHT22;40599;53.132;6.090;2022-10-16T16:02:35;15.10;99.90
54700;DHT22;40599;53.132;6.090;2022-10-16T16:05:01;15.10;99.90
54700;DHT22;40599;53.132;6.090;2022-10-16T16:07:27;15.00;99.90
54700;DHT22;40599;53.132;6.090;2022-10-16T16:10:03;15.00;99.90
54700;DHT22;40599;53.132;6.090;2022-10-16T16:12:29;14.80;99.90
54700;DHT22;40599;53.132;6.090;2022-10-16T16:14:55;14.80;99.90
54700;DHT22;40599;53.132;6.090;2022-10-16T16:17:20;14.80;99.90
54700;DHT22;40599;53.132;6.090;2022-10-16T16:19:46;14.80;99.90
54700;DHT22;40599;53.132;6.090;2022-10-16T16:22:12;14.70;99.90
54700;DHT22;40599;53.132;6.090;2022-10-16T16:24:38;14.60;99.90
54700;DHT22;40599;53.132;6.090;2022-10-16T16:27:03;14.60;99.90
54700;DHT22;40599;53.132;6.090;2022-10-16T16:29:29;14.50;99.90
54700;DHT22;40599;53.132;6.090;2022-10-16T16:31:55;14.50;99.90
54700;DHT22;40599;53.132;6.090;2022-10-16T16:34:26;14.50;99.90
54700;DHT22;40599;53.132;6.090;2022-10-16T16:36:52;14.30;99.90
54700;DHT22;40599;53.132;6.090;2022-10-16T16:39:17;14.20;99.90
54700;DHT22;40599;53.132;6.090;2022-10-16T16:41:43;14.00;99.90
54700;DHT22;40599;53.132;6.090;2022-10-16T23:07:44;12.50;99.90
54700;DHT22;40599;53.132;6.090;2022-10-16T23:10:10;12.50;99.90
54700;DHT22;40599;53.132;6.090;2022-10-16T23:12:36;12.40;99.90
54700;DHT22;40599;53.132;6.090;2022-10-16T23:15:02;12.40;99.90
54700;DHT22;40599;53.132;6.090;2022-10-16T23:17:28;12.40;99.90
54700;DHT22;40599;53.132;6.090;2022-10-16T23:19:53;12.40;99.90
54700;DHT22;40599;53.132;6.090;2022-10-16T23:22:19;12.30;99.90
54700;DHT22;40599;53.132;6.090;2022-10-16T23:24:45;12.30;99.90
54700;DHT22;40599;53.132;6.090;2022-10-16T23:27:10;12.20;99.90
54700;DHT22;40599;53.132;6.090;2022-10-16T23:29:36;12.20;99.90
54700;DHT22;40599;53.132;6.090;2022-10-16T23:32:02;12.10;99.90
54700;DHT22;40599;53.132;6.090;2022-10-16T23:34:27;12.10;99.90
54700;DHT22;40599;53.132;6.090;2022-10-16T23:36:53;12.10;99.90
54700;DHT22;40599;53.132;6.090;2022-10-16T23:39:18;12.00;99.90
54700;DHT22;40599;53.132;6.090;2022-10-16T23:41:44;12.00;99.90
54700;DHT22;40599;53.132;6.090;2022-10-16T23:44:10;12.00;99.90